PWSweather.com
Personal Weather Stations
Station Observations
SHAHALMS1
Eftra, Falkenberg, HA

EftraFalkenberg, HA

Lat: 56.85, Lon: 12.65

Elevation: 140

Station Type:

http://hem.passagen.se/risarp101

High Low Average
Temperature 43.2°F6.2°C 34.0°F1.1°C 39.4°F4.1°C
Dew Point 39.1°F3.9°C 31.6°F-0.2°C 36.7°F2.6°C
Winds 11.1 mph 17.9 kmh 2.0 mph 3.2 kmh 8.0 mph S12.9 kmh S
Wind Gusts 35.4 mph57.0 kmh 12.9 mph20.8 kmh 20.0 mph32.2 kmh
Humidity 94% 82% 90%
Pressure 29.33 in993.2 mb 29.15 in987.1 mb -
Precipitation 0.43 in10.9 mm - -
Hour Temp Dew Point Humidity Winds Wind Gusts Pressure Precip Precip Rate Daily Precip Total
12:00 AM 36.7°F2.6°C 34.3°F1.3°C 91% 8.1 mph S13.0 kmh S 20.8 mph33.5 kmh 29.33 in993.2 mb 0.10 in2.5 mm 0.00 in0.0 mm 0.10 in2.5 mm
12:15 AM 36.7°F2.6°C 34.3°F1.3°C 91% 8.6 mph SSE13.8 kmh SSE 21.1 mph34.0 kmh 29.33 in993.2 mb 0.05 in1.3 mm 0.00 in0.0 mm 0.10 in2.5 mm
12:30 AM 36.5°F2.5°C 34.1°F1.2°C 91% 10.1 mph S16.3 kmh S 20.8 mph33.5 kmh 29.30 in992.2 mb 0.10 in2.5 mm 0.20 in5.1 mm 0.05 in1.3 mm
12:45 AM 36.5°F2.5°C 34.1°F1.2°C 91% 10.3 mph S16.6 kmh S 29.0 mph46.7 kmh 29.30 in992.2 mb 0.05 in1.3 mm 0.00 in0.0 mm 0.05 in1.3 mm
01:00 AM 36.3°F2.4°C 33.9°F1.1°C 91% 9.6 mph S15.4 kmh S 22.2 mph35.7 kmh 29.30 in992.2 mb 0.05 in1.3 mm 0.00 in0.0 mm 0.05 in1.3 mm
01:15 AM 36.1°F2.3°C 33.8°F1.0°C 91% 8.3 mph SSE13.4 kmh SSE 20.4 mph32.8 kmh 29.30 in992.2 mb 0.10 in2.5 mm 0.20 in5.1 mm 0.10 in2.5 mm
01:30 AM 35.8°F2.1°C 33.4°F0.8°C 91% 9.2 mph SSE14.8 kmh SSE 24.3 mph39.1 kmh 29.27 in991.2 mb 0.05 in1.3 mm 0.00 in0.0 mm 0.10 in2.5 mm
01:45 AM 35.6°F2.0°C 33.0°F0.6°C 90% 7.9 mph SSE12.7 kmh SSE 19.3 mph31.1 kmh 29.27 in991.2 mb 0.05 in1.3 mm 0.00 in0.0 mm 0.10 in2.5 mm
02:00 AM 35.2°F1.8°C 32.6°F0.3°C 90% 8.1 mph SE13.0 kmh SE 16.8 mph27.0 kmh 29.24 in990.2 mb 0.10 in2.5 mm 0.07 in1.8 mm 0.15 in3.8 mm
02:15 AM 35.1°F1.7°C 32.4°F0.2°C 90% 7.1 mph SE11.4 kmh SE 19.7 mph31.7 kmh 29.24 in990.2 mb 0.05 in1.3 mm 0.00 in0.0 mm 0.15 in3.8 mm
02:30 AM 34.9°F1.6°C 32.5°F0.3°C 91% 8.4 mph SSE13.5 kmh SSE 19.3 mph31.1 kmh 29.27 in991.2 mb 0.05 in1.3 mm 0.00 in0.0 mm 0.15 in3.8 mm
02:45 AM 34.7°F1.5°C 32.3°F0.2°C 91% 8.2 mph SSE13.2 kmh SSE 21.8 mph35.1 kmh 29.24 in990.2 mb 0.05 in1.3 mm 0.00 in0.0 mm 0.15 in3.8 mm
03:00 AM 34.3°F1.3°C 32.0°F0.0°C 91% 9.2 mph SSE14.8 kmh SSE 21.1 mph34.0 kmh 29.21 in989.2 mb 0.06 in1.5 mm 0.01 in0.3 mm 0.21 in5.3 mm
03:15 AM 34.2°F1.2°C 31.8°F-0.1°C 91% 10.3 mph SSE16.6 kmh SSE 27.6 mph44.4 kmh 29.21 in989.2 mb 0.06 in1.5 mm 0.00 in0.0 mm 0.21 in5.3 mm
03:30 AM 34.0°F1.1°C 31.6°F-0.2°C 91% 7.0 mph SE11.3 kmh SE 16.1 mph25.9 kmh 29.21 in989.2 mb 0.06 in1.5 mm 0.00 in0.0 mm 0.21 in5.3 mm
03:45 AM 34.0°F1.1°C 31.6°F-0.2°C 91% 8.3 mph SSE13.4 kmh SSE 18.3 mph29.5 kmh 29.21 in989.2 mb 0.06 in1.5 mm 0.00 in0.0 mm 0.21 in5.3 mm
04:00 AM 34.0°F1.1°C 31.9°F-0.1°C 92% 7.4 mph SSE11.9 kmh SSE 17.9 mph28.8 kmh 29.18 in988.1 mb 0.00 in0.0 mm 0.00 in0.0 mm 0.21 in5.3 mm
04:15 AM 34.0°F1.1°C 31.9°F-0.1°C 92% 7.8 mph SE12.6 kmh SE 20.4 mph32.8 kmh 29.18 in988.1 mb 0.00 in0.0 mm 0.00 in0.0 mm 0.21 in5.3 mm
04:30 AM 34.2°F1.2°C 32.1°F0.1°C 92% 5.9 mph SE9.5 kmh SE 18.3 mph29.5 kmh 29.18 in988.1 mb 0.00 in0.0 mm 0.00 in0.0 mm 0.21 in5.3 mm
04:45 AM 34.5°F1.4°C 32.4°F0.2°C 92% 6.5 mph SE10.5 kmh SE 14.3 mph23.0 kmh 29.18 in988.1 mb 0.00 in0.0 mm 0.00 in0.0 mm 0.21 in5.3 mm
05:00 AM 34.7°F1.5°C 32.9°F0.5°C 93% 3.4 mph SE5.5 kmh SE 15.4 mph24.8 kmh 29.18 in988.1 mb 0.05 in1.3 mm 0.07 in1.8 mm 0.26 in6.6 mm
05:15 AM 35.4°F1.9°C 33.6°F0.9°C 93% 2.0 mph SSE3.2 kmh SSE 16.1 mph25.9 kmh 29.18 in988.1 mb 0.05 in1.3 mm 0.00 in0.0 mm 0.26 in6.6 mm
05:30 AM 36.7°F2.6°C 35.1°F1.7°C 94% 9.9 mph W15.9 kmh W 20.0 mph32.2 kmh 29.15 in987.1 mb 0.10 in2.5 mm 0.20 in5.1 mm 0.31 in7.9 mm
05:45 AM 36.7°F2.6°C 35.1°F1.7°C 94% 9.7 mph W15.6 kmh W 18.3 mph29.5 kmh 29.18 in988.1 mb 0.15 in3.8 mm 0.20 in5.1 mm 0.36 in9.1 mm
06:00 AM 36.9°F2.7°C 35.3°F1.8°C 94% 7.4 mph W11.9 kmh W 13.6 mph21.9 kmh 29.21 in989.2 mb 0.10 in2.5 mm 0.00 in0.0 mm 0.36 in9.1 mm
06:15 AM 37.0°F2.8°C 35.2°F1.8°C 93% 7.7 mph W12.4 kmh W 15.4 mph24.8 kmh 29.21 in989.2 mb 0.10 in2.5 mm 0.00 in0.0 mm 0.36 in9.1 mm
06:30 AM 37.2°F2.9°C 35.4°F1.9°C 93% 8.7 mph WSW14.0 kmh WSW 19.3 mph31.1 kmh 29.21 in989.2 mb 0.05 in1.3 mm 0.00 in0.0 mm 0.36 in9.1 mm
06:45 AM 37.6°F3.1°C 36.0°F2.2°C 94% 9.3 mph WSW15.0 kmh WSW 20.4 mph32.8 kmh 29.24 in990.2 mb 0.00 in0.0 mm 0.00 in0.0 mm 0.36 in9.1 mm
07:00 AM 38.1°F3.4°C 36.5°F2.5°C 94% 11.1 mph SW17.9 kmh SW 22.5 mph36.2 kmh 29.24 in990.2 mb 0.05 in1.3 mm 0.07 in1.8 mm 0.41 in10.4 mm
07:15 AM 38.5°F3.6°C 36.9°F2.7°C 94% 9.8 mph SW15.8 kmh SW 22.9 mph36.9 kmh 29.24 in990.2 mb 0.05 in1.3 mm 0.00 in0.0 mm 0.41 in10.4 mm
07:30 AM 39.2°F4.0°C 37.6°F3.1°C 94% 10.7 mph WSW17.2 kmh WSW 18.3 mph29.5 kmh 29.24 in990.2 mb 0.05 in1.3 mm 0.00 in0.0 mm 0.38 in9.7 mm
07:45 AM 39.6°F4.2°C 38.0°F3.3°C 94% 10.2 mph SSW16.4 kmh SSW 20.8 mph33.5 kmh 29.27 in991.2 mb 0.05 in1.3 mm 0.00 in0.0 mm 0.38 in9.7 mm
08:00 AM 40.1°F4.5°C 38.5°F3.6°C 94% 9.8 mph S15.8 kmh S 19.3 mph31.1 kmh 29.27 in991.2 mb 0.00 in0.0 mm 0.00 in0.0 mm 0.38 in9.7 mm
08:15 AM 40.1°F4.5°C 38.2°F3.4°C 93% 9.7 mph S15.6 kmh S 24.3 mph39.1 kmh 29.24 in990.2 mb 0.00 in0.0 mm 0.00 in0.0 mm 0.38 in9.7 mm
08:30 AM 39.9°F4.4°C 37.8°F3.2°C 92% 7.9 mph S12.7 kmh S 17.5 mph28.2 kmh 29.21 in989.2 mb 0.00 in0.0 mm 0.00 in0.0 mm 0.38 in9.7 mm
08:45 AM 40.1°F4.5°C 37.7°F3.2°C 91% 8.7 mph SSW14.0 kmh SSW 21.8 mph35.1 kmh 29.21 in989.2 mb 0.00 in0.0 mm 0.00 in0.0 mm 0.38 in9.7 mm
09:00 AM 39.9°F4.4°C 37.2°F2.9°C 90% 8.8 mph S14.2 kmh S 17.5 mph28.2 kmh 29.24 in990.2 mb 0.00 in0.0 mm 0.00 in0.0 mm 0.38 in9.7 mm
09:15 AM 39.7°F4.3°C 37.0°F2.8°C 90% 9.3 mph S15.0 kmh S 20.8 mph33.5 kmh 29.21 in989.2 mb 0.00 in0.0 mm 0.00 in0.0 mm 0.38 in9.7 mm
09:30 AM 39.6°F4.2°C 36.9°F2.7°C 90% 9.6 mph S15.4 kmh S 21.1 mph34.0 kmh 29.21 in989.2 mb 0.00 in0.0 mm 0.00 in0.0 mm 0.38 in9.7 mm
09:45 AM 39.9°F4.4°C 37.5°F3.1°C 91% 8.3 mph S13.4 kmh S 20.4 mph32.8 kmh 29.24 in990.2 mb 0.00 in0.0 mm 0.00 in0.0 mm 0.38 in9.7 mm
10:00 AM 40.1°F4.5°C 38.0°F3.3°C 92% 7.4 mph S11.9 kmh S 16.5 mph26.6 kmh 29.24 in990.2 mb 0.00 in0.0 mm 0.00 in0.0 mm 0.38 in9.7 mm
10:15 AM 40.1°F4.5°C 38.0°F3.3°C 92% 8.0 mph S12.9 kmh S 17.5 mph28.2 kmh 29.24 in990.2 mb 0.00 in0.0 mm 0.00 in0.0 mm 0.38 in9.7 mm
10:30 AM 40.3°F4.6°C 38.1°F3.4°C 92% 10.2 mph S16.4 kmh S 25.4 mph40.9 kmh 29.21 in989.2 mb 0.00 in0.0 mm 0.00 in0.0 mm 0.38 in9.7 mm
10:45 AM 40.6°F4.8°C 38.2°F3.4°C 91% 9.9 mph S15.9 kmh S 24.7 mph39.8 kmh 29.24 in990.2 mb 0.00 in0.0 mm 0.00 in0.0 mm 0.38 in9.7 mm
11:00 AM 41.2°F5.1°C 38.8°F3.8°C 91% 10.9 mph S17.5 kmh S 31.5 mph50.7 kmh 29.21 in989.2 mb 0.00 in0.0 mm 0.00 in0.0 mm 0.38 in9.7 mm
11:15 AM 41.2°F5.1°C 38.5°F3.6°C 90% 10.0 mph S16.1 kmh S 24.3 mph39.1 kmh 29.27 in991.2 mb 0.00 in0.0 mm 0.00 in0.0 mm 0.38 in9.7 mm
11:30 AM 41.7°F5.4°C 39.0°F3.9°C 90% 9.0 mph S14.5 kmh S 17.9 mph28.8 kmh 29.24 in990.2 mb 0.00 in0.0 mm 0.00 in0.0 mm 0.38 in9.7 mm
11:45 AM 41.7°F5.4°C 38.4°F3.6°C 88% 10.0 mph S16.1 kmh S 23.3 mph37.5 kmh 29.24 in990.2 mb 0.00 in0.0 mm 0.00 in0.0 mm 0.38 in9.7 mm
12:00 PM 41.4°F5.2°C 37.8°F3.2°C 87% 9.1 mph S14.6 kmh S 19.7 mph31.7 kmh 29.24 in990.2 mb 0.00 in0.0 mm 0.00 in0.0 mm 0.38 in9.7 mm
12:15 PM 41.2°F5.1°C 37.6°F3.1°C 87% 10.0 mph S16.1 kmh S 24.3 mph39.1 kmh 29.24 in990.2 mb 0.00 in0.0 mm 0.00 in0.0 mm 0.38 in9.7 mm
12:30 PM 41.4°F5.2°C 38.1°F3.4°C 88% 8.5 mph S13.7 kmh S 21.8 mph35.1 kmh 29.24 in990.2 mb 0.00 in0.0 mm 0.00 in0.0 mm 0.38 in9.7 mm
12:45 PM 41.4°F5.2°C 38.1°F3.4°C 88% 10.1 mph S16.3 kmh S 35.4 mph57.0 kmh 29.24 in990.2 mb 0.00 in0.0 mm 0.00 in0.0 mm 0.38 in9.7 mm
01:00 PM 41.7°F5.4°C 38.7°F3.7°C 89% 8.6 mph S13.8 kmh S 20.0 mph32.2 kmh 29.24 in990.2 mb 0.00 in0.0 mm 0.00 in0.0 mm 0.38 in9.7 mm
01:15 PM 42.1°F5.6°C 39.1°F3.9°C 89% 9.7 mph S15.6 kmh S 21.1 mph34.0 kmh 29.24 in990.2 mb 0.00 in0.0 mm 0.00 in0.0 mm 0.38 in9.7 mm
01:30 PM 41.9°F5.5°C 38.3°F3.5°C 87% 9.6 mph S15.4 kmh S 26.8 mph43.1 kmh 29.24 in990.2 mb 0.00 in0.0 mm 0.00 in0.0 mm 0.38 in9.7 mm
01:45 PM 42.1°F5.6°C 38.2°F3.4°C 86% 10.0 mph S16.1 kmh S 21.5 mph34.6 kmh 29.24 in990.2 mb 0.00 in0.0 mm 0.00 in0.0 mm 0.38 in9.7 mm
02:00 PM 42.6°F5.9°C 38.4°F3.6°C 85% 8.3 mph S13.4 kmh S 20.4 mph32.8 kmh 29.24 in990.2 mb 0.00 in0.0 mm 0.00 in0.0 mm 0.38 in9.7 mm
02:15 PM 43.2°F6.2°C 38.7°F3.7°C 84% 6.6 mph S10.6 kmh S 20.0 mph32.2 kmh 29.21 in989.2 mb 0.00 in0.0 mm 0.00 in0.0 mm 0.38 in9.7 mm
02:30 PM 42.8°F6.0°C 38.0°F3.3°C 83% 7.8 mph S12.6 kmh S 17.9 mph28.8 kmh 29.21 in989.2 mb 0.00 in0.0 mm 0.00 in0.0 mm 0.38 in9.7 mm
02:45 PM 42.6°F5.9°C 37.8°F3.2°C 83% 7.6 mph S12.2 kmh S 16.8 mph27.0 kmh 29.21 in989.2 mb 0.00 in0.0 mm 0.00 in0.0 mm 0.38 in9.7 mm
03:00 PM 42.4°F5.8°C 37.3°F2.9°C 82% 11.0 mph S17.7 kmh S 25.1 mph40.4 kmh 29.21 in989.2 mb 0.00 in0.0 mm 0.00 in0.0 mm 0.38 in9.7 mm
03:15 PM 42.3°F5.7°C 37.2°F2.9°C 82% 9.8 mph S15.8 kmh S 30.4 mph48.9 kmh 29.21 in989.2 mb 0.00 in0.0 mm 0.00 in0.0 mm 0.38 in9.7 mm
03:30 PM 42.3°F5.7°C 37.2°F2.9°C 82% 9.2 mph S14.8 kmh S 24.3 mph39.1 kmh 29.21 in989.2 mb 0.00 in0.0 mm 0.00 in0.0 mm 0.38 in9.7 mm
03:45 PM 42.3°F5.7°C 37.2°F2.9°C 82% 7.9 mph S12.7 kmh S 23.3 mph37.5 kmh 29.21 in989.2 mb 0.00 in0.0 mm 0.00 in0.0 mm 0.38 in9.7 mm
04:00 PM 42.3°F5.7°C 37.2°F2.9°C 82% 9.0 mph S14.5 kmh S 27.9 mph44.9 kmh 29.18 in988.1 mb 0.00 in0.0 mm 0.00 in0.0 mm 0.38 in9.7 mm
04:15 PM 42.1°F5.6°C 37.0°F2.8°C 82% 9.3 mph S15.0 kmh S 22.2 mph35.7 kmh 29.18 in988.1 mb 0.00 in0.0 mm 0.00 in0.0 mm 0.38 in9.7 mm
04:30 PM 41.7°F5.4°C 37.2°F2.9°C 84% 8.5 mph SSE13.7 kmh SSE 27.2 mph43.8 kmh 29.18 in988.1 mb 0.00 in0.0 mm 0.00 in0.0 mm 0.38 in9.7 mm
04:45 PM 41.4°F5.2°C 37.2°F2.9°C 85% 7.7 mph SSE12.4 kmh SSE 19.3 mph31.1 kmh 29.15 in987.1 mb 0.05 in1.3 mm 0.20 in5.1 mm 0.43 in10.9 mm
05:00 PM 41.2°F5.1°C 37.6°F3.1°C 87% 6.0 mph SSE9.7 kmh SSE 14.7 mph23.7 kmh 29.15 in987.1 mb 0.05 in1.3 mm 0.00 in0.0 mm 0.43 in10.9 mm
05:15 PM 41.0°F5.0°C 37.7°F3.2°C 88% 8.9 mph S14.3 kmh S 23.3 mph37.5 kmh 29.15 in987.1 mb 0.05 in1.3 mm 0.00 in0.0 mm 0.43 in10.9 mm
05:30 PM 41.0°F5.0°C 38.3°F3.5°C 90% 9.6 mph S15.4 kmh S 29.7 mph47.8 kmh 29.18 in988.1 mb 0.05 in1.3 mm 0.00 in0.0 mm 0.43 in10.9 mm
05:45 PM 40.8°F4.9°C 38.1°F3.4°C 90% 9.6 mph S15.4 kmh S 17.5 mph28.2 kmh 29.15 in987.1 mb 0.00 in0.0 mm 0.00 in0.0 mm 0.43 in10.9 mm
06:00 PM 40.6°F4.8°C 38.2°F3.4°C 91% 10.1 mph S16.3 kmh S 29.7 mph47.8 kmh 29.18 in988.1 mb 0.00 in0.0 mm 0.00 in0.0 mm 0.43 in10.9 mm
06:15 PM 40.6°F4.8°C 38.2°F3.4°C 91% 9.1 mph S14.6 kmh S 20.8 mph33.5 kmh 29.18 in988.1 mb 0.00 in0.0 mm 0.00 in0.0 mm 0.43 in10.9 mm
06:30 PM 40.8°F4.9°C 38.4°F3.6°C 91% 8.5 mph S13.7 kmh S 20.8 mph33.5 kmh 29.15 in987.1 mb 0.00 in0.0 mm 0.00 in0.0 mm 0.43 in10.9 mm
06:45 PM 40.8°F4.9°C 38.4°F3.6°C 91% 8.7 mph S14.0 kmh S 21.1 mph34.0 kmh 29.15 in987.1 mb 0.00 in0.0 mm 0.00 in0.0 mm 0.43 in10.9 mm
07:00 PM 40.8°F4.9°C 38.4°F3.6°C 91% 7.8 mph S12.6 kmh S 20.0 mph32.2 kmh 29.15 in987.1 mb 0.00 in0.0 mm 0.00 in0.0 mm 0.43 in10.9 mm
07:15 PM 40.8°F4.9°C 38.4°F3.6°C 91% 6.7 mph S10.8 kmh S 17.5 mph28.2 kmh 29.18 in988.1 mb 0.00 in0.0 mm 0.00 in0.0 mm 0.43 in10.9 mm
07:30 PM 40.8°F4.9°C 38.4°F3.6°C 91% 6.5 mph S10.5 kmh S 14.3 mph23.0 kmh 29.18 in988.1 mb 0.00 in0.0 mm 0.00 in0.0 mm 0.43 in10.9 mm
07:45 PM 40.8°F4.9°C 38.4°F3.6°C 91% 6.2 mph S10.0 kmh S 14.0 mph22.5 kmh 29.18 in988.1 mb 0.00 in0.0 mm 0.00 in0.0 mm 0.43 in10.9 mm
08:00 PM 40.8°F4.9°C 38.7°F3.7°C 92% 8.1 mph S13.0 kmh S 17.5 mph28.2 kmh 29.21 in989.2 mb 0.00 in0.0 mm 0.00 in0.0 mm 0.43 in10.9 mm
08:15 PM 40.8°F4.9°C 38.4°F3.6°C 91% 6.7 mph S10.8 kmh S 17.2 mph27.7 kmh 29.21 in989.2 mb 0.00 in0.0 mm 0.00 in0.0 mm 0.43 in10.9 mm
08:30 PM 40.6°F4.8°C 38.2°F3.4°C 91% 8.0 mph S12.9 kmh S 15.7 mph25.3 kmh 29.21 in989.2 mb 0.00 in0.0 mm 0.00 in0.0 mm 0.43 in10.9 mm
08:45 PM 40.6°F4.8°C 38.2°F3.4°C 91% 6.8 mph S10.9 kmh S 17.2 mph27.7 kmh 29.21 in989.2 mb 0.00 in0.0 mm 0.00 in0.0 mm 0.43 in10.9 mm
09:00 PM 40.6°F4.8°C 38.2°F3.4°C 91% 8.1 mph S13.0 kmh S 20.0 mph32.2 kmh 29.21 in989.2 mb 0.00 in0.0 mm 0.00 in0.0 mm 0.43 in10.9 mm
09:15 PM 40.8°F4.9°C 38.7°F3.7°C 92% 7.6 mph S12.2 kmh S 16.8 mph27.0 kmh 29.21 in989.2 mb 0.00 in0.0 mm 0.00 in0.0 mm 0.43 in10.9 mm
09:30 PM 40.8°F4.9°C 38.7°F3.7°C 92% 5.6 mph S9.0 kmh S 15.4 mph24.8 kmh 29.21 in989.2 mb 0.00 in0.0 mm 0.00 in0.0 mm 0.43 in10.9 mm
09:45 PM 40.8°F4.9°C 38.7°F3.7°C 92% 7.4 mph S11.9 kmh S 16.8 mph27.0 kmh 29.21 in989.2 mb 0.00 in0.0 mm 0.00 in0.0 mm 0.43 in10.9 mm
10:00 PM 40.6°F4.8°C 38.5°F3.6°C 92% 8.2 mph S13.2 kmh S 23.3 mph37.5 kmh 29.21 in989.2 mb 0.00 in0.0 mm 0.00 in0.0 mm 0.43 in10.9 mm
10:15 PM 40.6°F4.8°C 38.5°F3.6°C 92% 7.6 mph S12.2 kmh S 20.4 mph32.8 kmh 29.21 in989.2 mb 0.00 in0.0 mm 0.00 in0.0 mm 0.43 in10.9 mm
10:30 PM 40.6°F4.8°C 38.5°F3.6°C 92% 8.3 mph S13.4 kmh S 16.1 mph25.9 kmh 29.21 in989.2 mb 0.00 in0.0 mm 0.00 in0.0 mm 0.43 in10.9 mm
10:45 PM 40.6°F4.8°C 38.5°F3.6°C 92% 7.3 mph S11.7 kmh S 17.5 mph28.2 kmh 29.21 in989.2 mb 0.00 in0.0 mm 0.00 in0.0 mm 0.43 in10.9 mm
11:00 PM 40.6°F4.8°C 38.5°F3.6°C 92% 8.2 mph S13.2 kmh S 16.8 mph27.0 kmh 29.21 in989.2 mb 0.00 in0.0 mm 0.00 in0.0 mm 0.43 in10.9 mm
11:15 PM 40.6°F4.8°C 38.5°F3.6°C 92% 8.2 mph S13.2 kmh S 20.8 mph33.5 kmh 29.24 in990.2 mb 0.00 in0.0 mm 0.00 in0.0 mm 0.43 in10.9 mm
11:30 PM 40.5°F4.7°C 38.6°F3.7°C 93% 6.6 mph S10.6 kmh S 15.7 mph25.3 kmh 29.21 in989.2 mb 0.00 in0.0 mm 0.00 in0.0 mm 0.43 in10.9 mm
11:45 PM 40.5°F4.7°C 38.6°F3.7°C 93% 6.0 mph S9.7 kmh S 12.9 mph20.8 kmh 29.21 in989.2 mb 0.00 in0.0 mm 0.00 in0.0 mm 0.43 in10.9 mm